Time;durP1;ratioP1;P1;durP2;ratioP2;P2;SDS_P1;SDS_P2;PMS_P1;PMS_P2;Temp;Humidity;BMP_temperature;BMP_pressure;BME280_temperature;BME280_humidity;BME280_pressure;Samples;Min_cycle;Max_cycle;Signal;HPM_P1;HPM_P2
2022/08/14 00:00:22;;;;;;;0.50;0.43;;;;;;;-145.06;100.00;60892.56;4825335;28;20065;-86
2022/08/14 00:03:01;;;;;;;0.70;0.50;;;;;;;-145.06;100.00;60892.56;4827413;28;20460;-86
2022/08/14 00:05:40;;;;;;;0.57;0.50;;;;;;;-145.06;100.00;60892.56;4827606;28;20038;-86
2022/08/14 00:08:19;;;;;;;0.77;0.50;;;;;;;-145.06;100.00;60892.56;4825259;28;20109;-87
2022/08/14 00:10:59;;;;;;;0.45;0.35;;;;;;;-145.06;100.00;60892.56;4829359;28;20069;-86
2022/08/14 00:13:37;;;;;;;0.57;0.50;;;;;;;-145.06;100.00;60892.56;4860945;28;20065;-85
2022/08/14 00:16:16;;;;;;;0.75;0.43;;;;;;;-145.06;100.00;60892.56;4830139;28;20034;-86
2022/08/14 00:18:56;;;;;;;0.82;0.70;;;;;;;-145.06;100.00;60892.56;4829490;28;20109;-86
2022/08/14 00:21:36;;;;;;;0.60;0.40;;;;;;;-145.06;100.00;60892.56;4859886;28;20638;-86
2022/08/14 00:24:15;;;;;;;0.57;0.45;;;;;;;-145.06;100.00;60892.56;4823233;28;20037;-87
2022/08/14 00:26:54;;;;;;;1.27;0.65;;;;;;;-145.06;100.00;60892.56;4826865;28;20121;-86
2022/08/14 00:29:33;;;;;;;0.80;0.60;;;;;;;-145.06;100.00;60892.56;4820380;28;20037;-86
2022/08/14 00:32:12;;;;;;;0.85;0.50;;;;;;;-145.06;100.00;60892.56;4831333;28;20034;-87
2022/08/14 00:34:51;;;;;;;0.80;0.57;;;;;;;-145.06;100.00;60892.56;4835334;28;20041;-87
2022/08/14 00:37:30;;;;;;;0.60;0.40;;;;;;;-145.06;100.00;60892.56;4828598;28;20034;-86
2022/08/14 00:40:12;;;;;;;0.47;0.45;;;;;;;-145.06;100.00;60892.56;4829386;28;20069;-85
2022/08/14 00:42:52;;;;;;;0.70;0.50;;;;;;;-145.06;100.00;60892.56;4830072;28;20108;-86
2022/08/14 00:45:31;;;;;;;0.50;0.40;;;;;;;-145.06;100.00;60892.56;4836442;28;20033;-85
2022/08/14 00:48:10;;;;;;;0.63;0.40;;;;;;;-145.06;100.00;60892.56;4830319;28;20041;-86
2022/08/14 00:50:49;;;;;;;0.70;0.52;;;;;;;-145.06;100.00;60892.56;4824295;28;20034;-86
2022/08/14 00:53:28;;;;;;;0.50;0.47;;;;;;;-145.06;100.00;60892.56;4830723;28;20129;-86
2022/08/14 00:56:08;;;;;;;0.60;0.40;;;;;;;-145.06;100.00;60892.56;4828349;28;20034;-85
2022/08/14 00:58:47;;;;;;;0.45;0.25;;;;;;;-145.06;100.00;60892.56;4827649;28;20031;-85
2022/08/14 01:01:27;;;;;;;0.50;0.35;;;;;;;-145.06;100.00;60892.56;4837179;28;20033;-86
2022/08/14 01:04:06;;;;;;;1.27;0.50;;;;;;;-145.06;100.00;60892.56;4829309;28;20430;-86
2022/08/14 01:06:45;;;;;;;1.17;0.50;;;;;;;-145.06;100.00;60892.56;4828292;28;20639;-86
2022/08/14 01:09:25;;;;;;;0.47;0.35;;;;;;;-145.06;100.00;60892.56;4829974;28;20121;-86
2022/08/14 01:12:05;;;;;;;1.95;0.30;;;;;;;-145.06;100.00;60892.56;4827532;28;20038;-85
2022/08/14 01:14:44;;;;;;;0.55;0.40;;;;;;;-145.06;100.00;60892.56;4825324;28;20038;-86
2022/08/14 01:21:02;;;;;;;0.27;0.20;;;;;;;-145.06;100.00;60892.56;4828406;28;20038;-86
2022/08/14 01:23:38;;;;;;;0.50;0.40;;;;;;;-145.06;100.00;60892.56;4814575;28;20388;-86
2022/08/14 01:26:20;;;;;;;0.50;0.38;;;;;;;-145.06;100.00;60892.56;4827321;28;20061;-86
2022/08/14 01:29:00;;;;;;;0.60;0.40;;;;;;;-145.06;100.00;60892.56;4828609;28;20026;-87
2022/08/14 01:34:25;;;;;;;0.75;0.50;;;;;;;-145.06;100.00;60892.56;4828943;28;20030;-87
2022/08/14 01:37:04;;;;;;;0.50;0.47;;;;;;;-145.06;100.00;60892.56;4826991;28;20026;-86
2022/08/14 01:39:43;;;;;;;0.50;0.40;;;;;;;-145.06;100.00;60892.56;4828597;28;20069;-86
2022/08/14 01:42:22;;;;;;;0.70;0.50;;;;;;;-145.06;100.00;60892.56;4839302;28;20038;-86
2022/08/14 01:45:10;;;;;;;0.63;0.50;;;;;;;-145.06;100.00;60892.56;4842817;28;20356;-87
2022/08/14 01:47:49;;;;;;;1.13;0.57;;;;;;;-145.06;100.00;60892.56;4829170;28;20116;-86
2022/08/14 01:50:28;;;;;;;0.55;0.50;;;;;;;-145.06;100.00;60892.56;4832613;28;20041;-86
2022/08/14 01:53:07;;;;;;;0.73;0.60;;;;;;;-145.06;100.00;60892.56;4831092;28;20026;-86
2022/08/14 01:55:50;;;;;;;0.70;0.50;;;;;;;-145.06;100.00;60892.56;4825992;28;20755;-86
2022/08/14 01:58:30;;;;;;;0.77;0.50;;;;;;;-145.06;100.00;60892.56;4829510;28;20030;-86
2022/08/14 02:01:09;;;;;;;3.75;0.60;;;;;;;-145.06;100.00;60892.56;4829557;28;20038;-87
2022/08/14 02:03:48;;;;;;;0.95;0.70;;;;;;;-145.06;100.00;60892.56;4831287;28;20025;-87
2022/08/14 02:06:28;;;;;;;0.60;0.60;;;;;;;-145.06;100.00;60892.56;4829705;28;20029;-86
2022/08/14 02:09:08;;;;;;;0.70;0.40;;;;;;;-145.06;100.00;60892.56;4834526;28;20377;-86
2022/08/14 02:11:49;;;;;;;1.35;0.50;;;;;;;-145.06;100.00;60892.56;4832115;28;20033;-87
2022/08/14 02:14:30;;;;;;;0.70;0.60;;;;;;;-145.06;100.00;60892.56;4836841;28;20369;-86
2022/08/14 02:17:12;;;;;;;0.57;0.50;;;;;;;-145.06;100.00;60892.56;4834975;28;20535;-85
2022/08/14 02:19:52;;;;;;;0.75;0.57;;;;;;;-145.06;100.00;60892.56;4836291;28;20503;-86
2022/08/14 02:22:31;;;;;;;;;;;;;;;-145.06;100.00;60892.56;4832632;28;20109;-86
2022/08/14 02:25:10;;;;;;;0.97;0.43;;;;;;;-145.06;100.00;60892.56;4840510;28;19917;-85
2022/08/14 02:27:48;;;;;;;0.95;0.60;;;;;;;-145.06;100.00;60892.56;4831635;28;20058;-86
2022/08/14 02:30:27;;;;;;;1.00;0.50;;;;;;;-145.06;100.00;60892.56;4835384;28;20050;-86
2022/08/14 02:33:07;;;;;;;0.40;0.40;;;;;;;-145.06;100.00;60892.56;4823541;28;20037;-86
2022/08/14 02:35:47;;;;;;;2.35;0.50;;;;;;;-145.06;100.00;60892.56;4832249;28;20033;-86
2022/08/14 02:38:25;;;;;;;0.90;0.67;;;;;;;-145.06;100.00;60892.56;4831828;28;20069;-86
2022/08/14 02:41:09;;;;;;;0.93;0.70;;;;;;;-145.06;100.00;60892.56;4835095;28;20025;-86
2022/08/14 02:43:48;;;;;;;0.73;0.57;;;;;;;-145.06;100.00;60892.56;4833435;28;20117;-86
2022/08/14 02:46:29;;;;;;;1.25;0.57;;;;;;;-145.06;100.00;60892.56;4831971;28;20042;-86
2022/08/14 02:49:09;;;;;;;1.17;0.60;;;;;;;-145.06;100.00;60892.56;4832144;28;20030;-86
2022/08/14 02:51:48;;;;;;;1.08;0.50;;;;;;;-145.06;100.00;60892.56;4831098;28;20038;-86
2022/08/14 02:54:27;;;;;;;0.73;0.57;;;;;;;-145.06;100.00;60892.56;4829073;28;20487;-87
2022/08/14 02:57:07;;;;;;;0.88;0.60;;;;;;;-145.06;100.00;60892.56;4836746;28;20038;-85
2022/08/14 02:59:47;;;;;;;1.17;0.57;;;;;;;-145.06;100.00;60892.56;4828252;28;20487;-86
2022/08/14 03:02:32;;;;;;;1.35;0.40;;;;;;;-145.06;100.00;60892.56;4830853;28;20045;-86
2022/08/14 03:05:11;;;;;;;0.95;0.80;;;;;;;-145.06;100.00;60892.56;4830888;28;20755;-86
2022/08/14 03:07:51;;;;;;;0.82;0.60;;;;;;;-145.06;100.00;60892.56;4827985;28;20093;-87
2022/08/14 03:10:31;;;;;;;0.80;0.50;;;;;;;-145.06;100.00;60892.56;4835399;28;20041;-86
2022/08/14 03:13:10;;;;;;;1.00;0.68;;;;;;;-145.06;100.00;60892.56;4832381;28;20037;-86
2022/08/14 03:15:52;;;;;;;1.13;0.80;;;;;;;-145.06;100.00;60892.56;4828399;28;20070;-86
2022/08/14 03:18:31;;;;;;;1.13;0.60;;;;;;;-145.06;100.00;60892.56;4829725;28;20029;-86
2022/08/14 03:21:15;;;;;;;1.02;0.93;;;;;;;-145.06;100.00;60892.56;4835137;28;20026;-86
2022/08/14 03:24:10;;;;;;;0.85;0.60;;;;;;;-145.06;100.00;60892.56;4830705;28;20156;-87
2022/08/14 03:26:51;;;;;;;0.50;0.50;;;;;;;-145.06;100.00;60892.56;4833174;28;20471;-86
2022/08/14 03:29:30;;;;;;;0.90;0.63;;;;;;;-145.06;100.00;60892.56;4826723;28;20030;-86
2022/08/14 03:32:09;;;;;;;0.88;0.73;;;;;;;-145.06;100.00;60892.56;4832383;28;20607;-87
2022/08/14 03:34:49;;;;;;;1.00;0.60;;;;;;;-145.06;100.00;60892.56;4831148;28;20046;-86
2022/08/14 03:37:27;;;;;;;1.00;0.60;;;;;;;-145.06;100.00;60892.56;4829936;28;20038;-85
2022/08/14 03:40:07;;;;;;;0.73;0.50;;;;;;;-145.06;100.00;60892.56;4833481;28;20046;-85
2022/08/14 03:42:49;;;;;;;0.70;0.55;;;;;;;-145.06;100.00;60892.56;4830176;28;20041;-86
2022/08/14 03:45:29;;;;;;;0.50;0.50;;;;;;;-145.06;100.00;60892.56;4833455;28;20037;-86
2022/08/14 03:48:18;;;;;;;0.67;0.60;;;;;;;-145.06;100.00;60892.56;4833629;28;20025;-86
2022/08/14 03:50:57;;;;;;;0.93;0.50;;;;;;;-145.06;100.00;60892.56;4827537;28;20289;-86
2022/08/14 03:53:42;;;;;;;0.80;0.60;;;;;;;-145.06;100.00;60892.56;4834197;28;20120;-85
2022/08/14 03:56:21;;;;;;;0.60;0.43;;;;;;;-145.06;100.00;60892.56;4828524;28;20301;-86
2022/08/14 03:59:08;;;;;;;0.97;0.60;;;;;;;-145.06;100.00;60892.56;4829938;28;20026;-87
2022/08/14 04:01:48;;;;;;;1.73;0.50;;;;;;;-145.06;100.00;60892.56;4836730;28;20029;-87
2022/08/14 04:04:29;;;;;;;0.52;0.50;;;;;;;-145.06;100.00;60892.56;4833290;28;20033;-86
2022/08/14 04:07:09;;;;;;;0.70;0.50;;;;;;;-145.06;100.00;60892.56;4832213;28;20025;-85
2022/08/14 04:09:48;;;;;;;0.50;0.40;;;;;;;-145.06;100.00;60892.56;4834912;28;20483;-86
2022/08/14 04:12:27;;;;;;;0.50;0.50;;;;;;;-145.06;100.00;60892.56;4828727;28;20105;-86
2022/08/14 04:15:07;;;;;;;0.80;0.50;;;;;;;-145.06;100.00;60892.56;4833986;28;20740;-86
2022/08/14 04:17:46;;;;;;;0.70;0.50;;;;;;;-145.06;100.00;60892.56;4826537;28;20484;-86
2022/08/14 04:20:25;;;;;;;1.57;0.50;;;;;;;-145.06;100.00;60892.56;4829594;28;20041;-86
2022/08/14 04:23:05;;;;;;;0.50;0.40;;;;;;;-145.06;100.00;60892.56;4830264;28;20059;-85
2022/08/14 04:25:44;;;;;;;0.85;0.73;;;;;;;-145.06;100.00;60892.56;4833037;28;20369;-86
2022/08/14 04:28:25;;;;;;;0.57;0.40;;;;;;;-145.06;100.00;60892.56;4830831;28;20467;-86
2022/08/14 04:31:05;;;;;;;0.77;0.57;;;;;;;-145.06;100.00;60892.56;4832264;28;20491;-86
2022/08/14 04:33:45;;;;;;;0.80;0.60;;;;;;;-145.06;100.00;60892.56;4834017;28;20061;-87
2022/08/14 04:36:24;;;;;;;;;;;;;;;-145.06;100.00;60892.56;4832888;28;20069;-86
2022/08/14 04:44:59;;;;;;;0.50;0.50;;;;;;;-145.06;100.00;60892.56;4832439;28;20034;-86
2022/08/14 04:50:47;;;;;;;0.60;0.40;;;;;;;-145.06;100.00;60892.56;4830286;28;20025;-86
2022/08/14 04:53:28;;;;;;;0.30;0.30;;;;;;;-145.06;100.00;60892.56;4845223;28;20038;-86
2022/08/14 04:56:08;;;;;;;0.40;0.38;;;;;;;-145.06;100.00;60892.56;4839501;28;20027;-86
2022/08/14 04:58:49;;;;;;;0.50;0.50;;;;;;;-145.06;100.00;60892.56;4838883;28;20476;-86
2022/08/14 05:01:28;;;;;;;0.65;0.60;;;;;;;-145.06;100.00;60892.56;4832642;28;20440;-86
2022/08/14 05:04:07;;;;;;;0.65;0.40;;;;;;;-145.06;100.00;60892.56;4838854;28;20029;-86
2022/08/14 05:06:48;;;;;;;1.27;0.80;;;;;;;-145.06;100.00;60892.56;4825802;28;20702;-86
2022/08/14 05:09:27;;;;;;;0.80;0.60;;;;;;;-145.06;100.00;60892.56;4835445;28;20275;-87
2022/08/14 05:12:07;;;;;;;0.70;0.50;;;;;;;-145.06;100.00;60892.56;4829059;28;20042;-86
2022/08/14 05:14:46;;;;;;;0.70;0.52;;;;;;;-145.06;100.00;60892.56;4829609;28;20069;-86
2022/08/14 05:17:25;;;;;;;0.57;0.57;;;;;;;-145.06;100.00;60892.56;4827589;28;20105;-85
2022/08/14 05:20:04;;;;;;;0.60;0.50;;;;;;;-145.06;100.00;60892.56;4826193;28;20448;-87
2022/08/14 05:22:44;;;;;;;1.15;0.57;;;;;;;-145.06;100.00;60892.56;4830037;28;20726;-86
2022/08/14 05:25:23;;;;;;;0.88;0.47;;;;;;;-145.06;100.00;60892.56;4841492;28;20042;-87
2022/08/14 05:28:17;;;;;;;0.70;0.50;;;;;;;-145.06;100.00;60892.56;4830382;28;20026;-86
2022/08/14 05:31:00;;;;;;;0.45;0.45;;;;;;;-145.06;100.00;60892.56;4822637;28;20269;-86
2022/08/14 05:33:39;;;;;;;0.80;0.43;;;;;;;-145.06;100.00;60892.56;4830285;28;20033;-86
2022/08/14 05:36:19;;;;;;;0.68;0.68;;;;;;;-145.06;100.00;60892.56;4831662;28;20025;-86
2022/08/14 05:38:58;;;;;;;0.45;0.40;;;;;;;-145.06;100.00;60892.56;4838992;28;20683;-86
2022/08/14 05:41:37;;;;;;;0.70;0.65;;;;;;;-145.06;100.00;60892.56;4825231;28;20022;-86
2022/08/14 05:44:16;;;;;;;0.90;0.60;;;;;;;-145.06;100.00;60892.56;4831976;28;20369;-86
2022/08/14 05:46:54;;;;;;;0.53;0.50;;;;;;;-145.06;100.00;60892.56;4833240;28;20033;-86
2022/08/14 05:49:33;;;;;;;2.50;0.60;;;;;;;-145.06;100.00;60892.56;4831648;28;20397;-86
2022/08/14 05:52:13;;;;;;;0.60;0.55;;;;;;;-145.06;100.00;60892.56;4835821;28;20018;-86
2022/08/14 05:54:52;;;;;;;1.50;0.50;;;;;;;-145.06;100.00;60892.56;4825958;28;20117;-86
2022/08/14 05:57:31;;;;;;;0.60;0.60;;;;;;;-145.06;100.00;60892.56;4836662;28;20369;-86
2022/08/14 06:00:11;;;;;;;1.27;0.90;;;;;;;-145.06;100.00;60892.56;4832872;28;20472;-86
2022/08/14 06:02:50;;;;;;;0.80;0.70;;;;;;;-145.06;100.00;60892.56;4834406;28;20121;-86
2022/08/14 06:05:30;;;;;;;0.68;0.68;;;;;;;-145.06;100.00;60892.56;4832193;28;20045;-86
2022/08/14 06:08:24;;;;;;;0.90;0.50;;;;;;;-145.06;100.00;60892.56;4832092;28;20037;-86
2022/08/14 06:11:05;;;;;;;0.75;0.75;;;;;;;-145.06;100.00;60892.56;4832973;28;20651;-86
2022/08/14 06:13:44;;;;;;;0.70;0.60;;;;;;;-145.06;100.00;60892.56;4834992;28;20029;-86
2022/08/14 06:16:24;;;;;;;0.77;0.60;;;;;;;-145.06;100.00;60892.56;4834439;28;20038;-86
2022/08/14 06:19:05;;;;;;;;;;;;;;;-145.06;100.00;60892.56;4829770;28;20038;-87
2022/08/14 06:21:44;;;;;;;0.98;0.63;;;;;;;-145.06;100.00;60892.56;4832134;28;19913;-86
2022/08/14 06:24:23;;;;;;;0.70;0.63;;;;;;;-145.06;100.00;60892.56;4835564;28;20069;-86
2022/08/14 06:27:03;;;;;;;0.73;0.60;;;;;;;-145.06;100.00;60892.56;4835484;28;20463;-86
2022/08/14 06:29:41;;;;;;;0.50;0.45;;;;;;;-145.06;100.00;60892.56;4824594;28;20269;-86
2022/08/14 06:32:20;;;;;;;0.93;0.77;;;;;;;-145.06;100.00;60892.56;4833625;28;20500;-86
2022/08/14 06:35:00;;;;;;;0.70;0.57;;;;;;;-145.06;100.00;60892.56;4830839;28;20475;-87
2022/08/14 06:37:57;;;;;;;0.90;0.63;;;;;;;-145.06;100.00;60892.56;4827914;28;20053;-86
2022/08/14 06:40:36;;;;;;;1.08;0.70;;;;;;;-145.06;100.00;60892.56;4834369;28;20033;-86
2022/08/14 06:43:17;;;;;;;1.10;0.70;;;;;;;-145.06;100.00;60892.56;4832691;28;20034;-87
2022/08/14 06:45:57;;;;;;;0.90;0.70;;;;;;;-145.06;100.00;60892.56;4832584;28;20029;-86
2022/08/14 06:48:35;;;;;;;0.70;0.70;;;;;;;-145.06;100.00;60892.56;4833183;28;20034;-86
2022/08/14 06:51:14;;;;;;;1.02;0.70;;;;;;;-145.06;100.00;60892.56;4833969;28;20365;-86
2022/08/14 06:53:53;;;;;;;1.00;0.70;;;;;;;-145.06;100.00;60892.56;4831594;28;20480;-86
2022/08/14 06:56:32;;;;;;;1.00;0.90;;;;;;;-145.06;100.00;60892.56;4830390;28;20041;-87
2022/08/14 06:59:14;;;;;;;0.80;0.63;;;;;;;-145.06;100.00;60892.56;4837688;28;20029;-87
2022/08/14 07:07:50;;;;;;;0.93;0.60;;;;;;;-145.06;100.00;60892.56;4836633;28;20033;-86
2022/08/14 07:10:29;;;;;;;1.67;0.60;;;;;;;-145.06;100.00;60892.56;4827017;28;20460;-86
2022/08/14 07:13:10;;;;;;;0.88;0.80;;;;;;;-145.06;100.00;60892.56;4834268;28;20495;-86
2022/08/14 07:15:52;;;;;;;1.00;0.77;;;;;;;-145.06;100.00;60892.56;4834612;28;20045;-86
2022/08/14 07:18:33;;;;;;;0.90;0.70;;;;;;;-145.06;100.00;60892.56;4828371;28;20026;-85
2022/08/14 07:21:14;;;;;;;0.98;0.73;;;;;;;-145.06;100.00;60892.56;4835117;28;20026;-87
2022/08/14 07:23:53;;;;;;;0.80;0.70;;;;;;;-145.06;100.00;60892.56;4829336;28;20432;-86
2022/08/14 07:26:32;;;;;;;1.15;0.80;;;;;;;-145.06;100.00;60892.56;4832214;28;20476;-86
2022/08/14 07:29:11;;;;;;;1.13;1.02;;;;;;;-145.06;100.00;60892.56;4834915;28;20038;-86
2022/08/14 07:31:50;;;;;;;0.82;0.68;;;;;;;-145.06;100.00;60892.56;4830736;28;20018;-87
2022/08/14 07:34:30;;;;;;;1.30;0.90;;;;;;;-145.06;100.00;60892.56;4836899;28;20389;-86
2022/08/14 07:37:09;;;;;;;;;;;;;;;-145.06;100.00;60892.56;4834949;28;20138;-85
2022/08/14 07:39:48;;;;;;;0.98;0.82;;;;;;;-145.06;100.00;60892.56;4839389;28;19921;-87
2022/08/14 07:42:28;;;;;;;1.00;0.90;;;;;;;-145.06;100.00;60892.56;4834682;28;20506;-87
2022/08/14 07:45:07;;;;;;;1.73;0.80;;;;;;;-145.06;100.00;60892.56;4834148;28;20681;-86
2022/08/14 07:47:46;;;;;;;0.68;0.68;;;;;;;-145.06;100.00;60892.56;4837777;28;20524;-86
2022/08/14 07:50:25;;;;;;;0.98;0.88;;;;;;;-145.06;100.00;60892.56;4840664;28;20223;-87
2022/08/14 07:53:05;;;;;;;1.13;0.90;;;;;;;-145.06;100.00;60892.56;4833348;28;20041;-86
2022/08/14 07:55:47;;;;;;;;;;;;;;;-145.06;100.00;60892.56;4835285;28;20030;-85
2022/08/14 07:58:27;;;;;;;0.82;0.82;;;;;;;-145.06;100.00;60892.56;4839483;28;19913;-87
2022/08/14 08:01:08;;;;;;;0.90;0.63;;;;;;;-145.06;100.00;60892.56;4842159;28;20117;-87
2022/08/14 08:03:48;;;;;;;0.95;0.75;;;;;;;-145.06;100.00;60892.56;4833109;28;20030;-86
2022/08/14 08:06:28;;;;;;;1.00;0.90;;;;;;;-145.06;100.00;60892.56;4846314;28;20029;-86
2022/08/14 08:09:08;;;;;;;1.10;0.82;;;;;;;-145.06;100.00;60892.56;4832645;28;20018;-87
2022/08/14 08:11:47;;;;;;;1.10;0.98;;;;;;;-145.06;100.00;60892.56;4832307;28;20026;-86
2022/08/14 08:14:26;;;;;;;0.80;0.80;;;;;;;-145.06;100.00;60892.56;4839835;28;20041;-86
2022/08/14 08:17:06;;;;;;;1.02;0.80;;;;;;;-145.06;100.00;60892.56;4834918;28;20030;-87
2022/08/14 08:19:49;;;;;;;1.10;0.85;;;;;;;-145.06;100.00;60892.56;4827346;28;20034;-86
2022/08/14 08:22:28;;;;;;;1.55;1.00;;;;;;;-145.06;100.00;60892.56;4827102;28;20030;-86
2022/08/14 08:25:08;;;;;;;1.92;1.10;;;;;;;-145.06;100.00;60892.56;4837325;28;20113;-88
2022/08/14 08:28:02;;;;;;;2.30;1.00;;;;;;;-145.06;100.00;60892.56;4828579;28;20038;-85
2022/08/14 08:30:47;;;;;;;0.90;0.80;;;;;;;-145.06;100.00;60892.56;4836586;28;20396;-86
2022/08/14 08:33:29;;;;;;;0.98;0.90;;;;;;;-145.06;100.00;60892.56;4833462;28;20251;-88
2022/08/14 08:36:11;;;;;;;1.00;0.90;;;;;;;-145.06;100.00;60892.56;4833814;28;20369;-87
2022/08/14 08:38:59;;;;;;;0.82;0.82;;;;;;;-145.06;100.00;60892.56;4827950;28;20025;-86
2022/08/14 08:41:46;;;;;;;1.33;1.10;;;;;;;-145.06;100.00;60892.56;4831314;28;20387;-87
2022/08/14 08:44:29;;;;;;;0.65;0.63;;;;;;;-145.06;100.00;60892.56;4830118;28;20038;-87
2022/08/14 08:47:08;;;;;;;1.00;0.65;;;;;;;-145.06;100.00;60892.56;4859664;28;20037;-88
2022/08/14 08:49:47;;;;;;;0.82;0.80;;;;;;;-145.06;100.00;60892.56;4825648;28;20022;-88
2022/08/14 08:52:28;;;;;;;0.95;0.88;;;;;;;-145.06;100.00;60892.56;4832648;28;20061;-87
2022/08/14 08:55:07;;;;;;;0.90;0.90;;;;;;;-145.06;100.00;60892.56;4832991;28;20030;-88
2022/08/14 08:57:47;;;;;;;;;;;;;;;-145.06;100.00;60892.56;4834400;28;20038;-89
2022/08/14 09:00:32;;;;;;;;;;;;;;;-145.06;100.00;60892.56;4832728;28;20028;-88
2022/08/14 09:03:16;;;;;;;1.10;1.00;;;;;;;-145.06;100.00;60892.56;4830501;28;19921;-86
2022/08/14 09:05:56;;;;;;;1.10;1.00;;;;;;;-145.06;100.00;60892.56;4833946;28;20057;-87
2022/08/14 09:08:36;;;;;;;0.80;0.80;;;;;;;-145.06;100.00;60892.56;4831121;28;20085;-87
2022/08/14 09:11:15;;;;;;;1.10;0.63;;;;;;;-145.06;100.00;60892.56;4831281;28;20117;-85
2022/08/14 09:13:54;;;;;;;1.35;0.82;;;;;;;-145.06;100.00;60892.56;4826355;28;20034;-85
2022/08/14 09:16:33;;;;;;;1.08;0.98;;;;;;;-145.06;100.00;60892.56;4833762;28;20033;-86
2022/08/14 09:19:14;;;;;;;0.65;0.65;;;;;;;-145.06;100.00;60892.56;4833864;28;20033;-85
2022/08/14 09:21:53;;;;;;;1.00;0.82;;;;;;;-145.06;100.00;60892.56;4830297;28;20034;-87
2022/08/14 09:24:32;;;;;;;;;;;;;;;-145.06;100.00;60892.56;4832368;28;20628;-87
2022/08/14 09:27:11;;;;;;;0.95;0.70;;;;;;;-145.06;100.00;60892.56;4841858;28;19921;-86
2022/08/14 09:29:51;;;;;;;1.20;0.80;;;;;;;-145.06;100.00;60892.56;4834864;28;20026;-86
2022/08/14 09:32:40;;;;;;;0.70;0.70;;;;;;;-145.06;100.00;60892.56;4853893;28;20041;-86
2022/08/14 09:35:28;;;;;;;;;;;;;;;-145.06;100.00;60892.56;4826834;28;20038;-86
2022/08/14 09:38:40;;;;;;;0.80;0.70;;;;;;;-145.06;100.00;60892.56;4839372;28;19913;-87
2022/08/14 09:41:22;;;;;;;0.60;0.55;;;;;;;-145.06;100.00;60892.56;4832687;28;20029;-88
2022/08/14 09:44:28;;;;;;;0.80;0.80;;;;;;;-145.06;100.00;60892.56;4831312;28;20543;-87
2022/08/14 09:47:09;;;;;;;1.10;0.98;;;;;;;-145.06;100.00;60892.56;4857988;28;20030;-88
2022/08/14 09:49:49;;;;;;;0.90;0.80;;;;;;;-145.06;100.00;60892.56;4829988;28;20100;-86
2022/08/14 09:52:28;;;;;;;0.70;0.60;;;;;;;-145.06;100.00;60892.56;4824922;28;20038;-88
2022/08/14 09:55:17;;;;;;;0.73;0.70;;;;;;;-145.06;100.00;60892.56;4834015;28;20017;-87
2022/08/14 09:58:17;;;;;;;0.80;0.80;;;;;;;-145.06;100.00;60892.56;4829789;28;20492;-88
2022/08/14 10:00:59;;;;;;;0.70;0.70;;;;;;;-145.06;100.00;60892.56;4824984;28;20033;-88
2022/08/14 10:03:49;;;;;;;0.70;0.70;;;;;;;-145.06;100.00;60892.56;4839053;28;20030;-88
2022/08/14 10:06:28;;;;;;;1.60;0.77;;;;;;;-145.06;100.00;60892.56;4833925;28;20041;-88
2022/08/14 10:09:07;;;;;;;0.90;0.60;;;;;;;-145.06;100.00;60892.56;4826786;28;20061;-87
2022/08/14 10:11:57;;;;;;;0.80;0.60;;;;;;;-145.06;100.00;60892.56;4824640;28;20031;-87
2022/08/14 10:14:37;;;;;;;0.70;0.70;;;;;;;-145.06;100.00;60892.56;4856876;28;20116;-88
2022/08/14 10:17:26;;;;;;;0.70;0.68;;;;;;;-145.06;100.00;60892.56;4831522;28;20030;-87
2022/08/14 10:20:07;;;;;;;1.00;0.90;;;;;;;-145.06;100.00;60892.56;4833063;28;20038;-86
2022/08/14 10:22:46;;;;;;;0.70;0.70;;;;;;;-145.06;100.00;60892.56;4833946;28;20038;-86
2022/08/14 10:25:27;;;;;;;0.80;0.80;;;;;;;-145.06;100.00;60892.56;4831852;28;20066;-87
2022/08/14 10:28:06;;;;;;;0.65;0.60;;;;;;;-145.06;100.00;60892.56;4829168;28;20108;-87
2022/08/14 10:30:52;;;;;;;0.60;0.57;;;;;;;-145.06;100.00;60892.56;4831483;28;20026;-87
2022/08/14 10:33:32;;;;;;;0.75;0.70;;;;;;;-145.06;100.00;60892.56;4829059;28;20503;-87
2022/08/14 10:36:11;;;;;;;0.70;0.70;;;;;;;-145.06;100.00;60892.56;4839897;28;20037;-89
2022/08/14 10:38:56;;;;;;;1.73;0.80;;;;;;;-145.06;100.00;60892.56;4842476;28;20018;-88
2022/08/14 10:41:40;;;;;;;0.82;0.80;;;;;;;-145.06;100.00;60892.56;4836513;28;20046;-89
2022/08/14 10:44:24;;;;;;;0.80;0.80;;;;;;;-145.06;100.00;60892.56;4833453;28;20038;-89
2022/08/14 10:47:09;;;;;;;0.57;0.57;;;;;;;-145.06;100.00;60892.56;4834281;28;20488;-88
2022/08/14 10:49:58;;;;;;;0.57;0.57;;;;;;;-145.06;100.00;60892.56;4830802;28;20030;-89
2022/08/14 10:52:37;;;;;;;0.73;0.68;;;;;;;-145.06;100.00;60892.56;4832959;28;20037;-87
2022/08/14 10:55:18;;;;;;;2.38;0.77;;;;;;;-145.06;100.00;60892.56;4832157;28;20030;-87
2022/08/14 10:57:57;;;;;;;0.68;0.60;;;;;;;-145.06;100.00;60892.56;4835577;28;20034;-87
2022/08/14 11:00:39;;;;;;;0.60;0.52;;;;;;;-145.06;100.00;60892.56;4830990;28;20034;-87
2022/08/14 11:03:18;;;;;;;0.75;0.55;;;;;;;-145.06;100.00;60892.56;4838062;28;20034;-88
2022/08/14 11:06:00;;;;;;;0.80;0.60;;;;;;;-145.06;100.00;60892.56;4839791;28;20042;-88
2022/08/14 11:08:39;;;;;;;1.00;0.88;;;;;;;-145.06;100.00;60892.56;4839546;28;20030;-91
2022/08/14 11:11:19;;;;;;;1.25;1.10;;;;;;;-145.06;100.00;60892.56;4830866;28;20117;-89
2022/08/14 11:13:58;;;;;;;1.13;0.60;;;;;;;-145.06;100.00;60892.56;4832950;28;21142;-89
2022/08/14 11:16:38;;;;;;;0.68;0.68;;;;;;;-145.06;100.00;60892.56;4831660;28;20034;-89
2022/08/14 11:19:18;;;;;;;0.52;0.40;;;;;;;-145.06;100.00;60892.56;4838093;28;20776;-89
2022/08/14 11:21:59;;;;;;;0.57;0.50;;;;;;;-145.06;100.00;60892.56;4840081;28;20026;-90
2022/08/14 11:24:42;;;;;;;0.50;0.50;;;;;;;-145.06;100.00;60892.56;4846294;28;20034;-90
2022/08/14 11:27:24;;;;;;;0.57;0.50;;;;;;;-145.06;100.00;60892.56;4885696;28;20037;-90
2022/08/14 11:30:09;;;;;;;0.80;0.80;;;;;;;-145.06;100.00;60892.56;4837864;28;20030;-88
2022/08/14 11:32:50;;;;;;;2.05;1.27;;;;;;;-145.06;100.00;60892.56;4832423;28;20037;-88
2022/08/14 11:35:29;;;;;;;1.02;0.90;;;;;;;-145.06;100.00;60892.56;4832614;28;20066;-87
2022/08/14 11:38:11;;;;;;;1.30;0.82;;;;;;;-145.06;100.00;60892.56;4836929;28;20493;-89
2022/08/14 11:40:50;;;;;;;0.70;0.70;;;;;;;-145.06;100.00;60892.56;4835787;28;20030;-89
2022/08/14 11:43:29;;;;;;;0.60;0.60;;;;;;;-145.06;100.00;60892.56;4833837;28;20061;-87
2022/08/14 11:46:09;;;;;;;;;;;;;;;-145.06;100.00;60892.56;4833901;28;20117;-87
2022/08/14 11:48:52;;;;;;;0.55;0.55;;;;;;;-145.06;100.00;60892.56;4828577;28;19913;-87
2022/08/14 11:51:33;;;;;;;0.70;0.60;;;;;;;-145.06;100.00;60892.56;4829271;28;20484;-87
2022/08/14 11:54:13;;;;;;;0.73;0.60;;;;;;;-145.06;100.00;60892.56;4833531;28;20041;-90
2022/08/14 11:56:52;;;;;;;0.88;0.82;;;;;;;-145.06;100.00;60892.56;4832835;28;20029;-90
2022/08/14 11:59:32;;;;;;;0.90;0.80;;;;;;;-145.06;100.00;60892.56;4828120;28;20030;-89
2022/08/14 12:02:12;;;;;;;0.80;0.80;;;;;;;-145.06;100.00;60892.56;4834156;28;20033;-88
2022/08/14 12:04:52;;;;;;;0.88;0.68;;;;;;;-145.06;100.00;60892.56;4831549;28;20641;-90
2022/08/14 12:07:32;;;;;;;0.60;0.60;;;;;;;-145.06;100.00;60892.56;4826860;28;20034;-90
2022/08/14 12:10:11;;;;;;;0.60;0.60;;;;;;;-145.06;100.00;60892.56;4831559;28;20062;-87
2022/08/14 12:12:53;;;;;;;0.55;0.55;;;;;;;-145.06;100.00;60892.56;4835543;28;20029;-89
2022/08/14 12:15:34;;;;;;;0.90;0.60;;;;;;;-145.06;100.00;60892.56;4838235;28;20045;-88
2022/08/14 12:18:14;;;;;;;0.50;0.50;;;;;;;-145.06;100.00;60892.56;4835513;28;20030;-86
2022/08/14 12:20:53;;;;;;;0.73;0.65;;;;;;;-145.06;100.00;60892.56;4840721;28;20030;-91
2022/08/14 12:23:31;;;;;;;0.52;0.40;;;;;;;-145.06;100.00;60892.56;4841134;28;20061;-89
2022/08/14 12:26:19;;;;;;;;;;;;;;;-145.06;100.00;60892.56;4829609;28;20521;-90
2022/08/14 12:29:15;;;;;;;1.85;0.45;;;;;;;-145.06;100.00;60892.56;4836523;28;19913;-90
2022/08/14 12:32:05;;;;;;;4.05;0.40;;;;;;;-145.06;100.00;60892.56;4859380;28;20026;-88
2022/08/14 12:34:52;;;;;;;0.40;0.40;;;;;;;-145.06;100.00;60892.56;4831951;28;20034;-88